Celebrity Constellation — 9HJB9 — position and weather

sailwx.info

Track history (hours):
 
Tides and Currents Weather Stations Pressure Air Temp Water Temp Dewpoint Dewpoint Depression Visibility Wind Speed Wind Dir Waves Ship Positions

Celebrity Constellation

Last reported at 2020-Jul-07 16:00 UTC. Time now 2020-Jul-07 17:46 UTC.
Position N 37°12' E 023°30'.

Length 294 m; draft 8.3 m.

Type: Passenger vessel. MMSI: 249046000.

Wind at 2 knots

Barometer 1004.2 mb
Air temperature 26.0 ° C
Visibility: greater than 10.8 NM
Dewpoint 23.2 ° C
Water temperature 25.0 ° C

Date/timePositionNaut miles runAvg speedWind from/ knotsBaromVisibWave heightAir tempDewpointWater temp
2020-Jul-07 16:00N 37°12' E 023°30'522.5 1004.210.8 26.023.225.0
2020-Jul-07 15:45N 37°15' E 023°36'1 0.8
2020-Jul-07 14:51N 37°15' E 023°37'0 0.2
2020-Jul-07 13:46N 37°15' E 023°37'1 1.4
2020-Jul-07 12:59N 37°14' E 023°36'3 1.8
2020-Jul-07 11:29N 37°12' E 023°35'1 1.2
2020-Jul-07 10:59N 37°13' E 023°35'2 0.5
2020-Jul-07 07:28N 37°14' E 023°36'0 0.2
2020-Jul-07 05:30N 37°15' E 023°36'1 0.8
2020-Jul-07 04:49N 37°15' E 023°36'3 3.7
2020-Jul-07 04:00N 37°12' E 023°36'4 7.0 260 / 71004.210.8 25.017.823.0
2020-Jul-07 03:25N 37°16' E 023°36'0 0.4
2020-Jul-07 02:59N 37°16' E 023°36'2 0.6
2020-Jul-07 00:00N 37°16' E 023°38'1 0.4
2020-Jul-06 22:20N 37°16' E 023°39'4 3.2
2020-Jul-06 21:00N 37°12' E 023°36'4 1.5 260 / 81003.2 25.725.725.0
2020-Jul-06 18:04N 37°16' E 023°36'1 0.9
2020-Jul-06 17:30N 37°16' E 023°37'0 0.2
2020-Jul-06 17:00N 37°16' E 023°37'4 3.8
2020-Jul-06 16:00N 37°12' E 023°36'2 0.4 230 / 111002.210.8 30.015.024.0
2020-Jul-06 11:48N 37°13' E 023°37'1 0.9
2020-Jul-06 10:55N 37°14' E 023°38'1 1.4
2020-Jul-06 09:59N 37°15' E 023°38'1 1.6
2020-Jul-06 09:30N 37°16' E 023°38'0 0.5
2020-Jul-06 08:30N 37°16' E 023°37'1 1.2
2020-Jul-06 07:53N 37°16' E 023°37'1 0.2
2020-Jul-06 04:16N 37°16' E 023°36'3 2.5
2020-Jul-06 03:00N 37°18' E 023°39'2145.9
2020-Jul-06 03:00N 37°18' E 023°36'3 6.3 360 / 331002.210.8 25.019.225.0
2020-Jul-06 02:27N 37°19' E 023°40'4 3.4
2020-Jul-06 01:07N 37°24' E 023°40'8 2.6
2020-Jul-05 21:57N 37°32' E 023°41'2 2.3
2020-Jul-05 21:00N 37°30' E 023°42'9 9.2 290 / 201005.2 26.026.025.0
2020-Jul-05 20:00N 37°39' E 023°42'14 3.6
2020-Jul-05 16:00N 37°51' E 023°31'0 0.1
2020-Jul-05 15:30N 37°51' E 023°31'0 0.0
2020-Jul-05 12:30N 37°51' E 023°31'0 0.0
2020-Jul-05 10:30N 37°51' E 023°31'0 0.0
2020-Jul-05 05:30N 37°51' E 023°31'0 0.0
2020-Jul-05 04:00N 37°51' E 023°31'0 0.0
2020-Jul-05 03:00N 37°51' E 023°31'0 0.0
2020-Jul-05 02:00N 37°51' E 023°31'0 0.0
2020-Jul-04 22:30N 37°51' E 023°31'0 0.0
2020-Jul-04 20:00N 37°51' E 023°31'0 0.0
2020-Jul-04 19:30N 37°51' E 023°31'0 0.0
2020-Jul-04 18:30N 37°51' E 023°31'0 0.0
2020-Jul-04 12:30N 37°51' E 023°31'1 0.5
2020-Jul-04 11:30N 37°50' E 023°32'33 4.3
2020-Jul-04 04:00N 37°18' E 023°36'6 5.8 320 / 111009.210.8 25.023.325.0
2020-Jul-04 03:00N 37°22' E 023°41'4 4.4
2020-Jul-04 01:59N 37°18' E 023°39'0 0.1
2020-Jul-03 21:30N 37°18' E 023°38'0 0.0
2020-Jul-03 21:00N 37°18' E 023°38'2169.9
2020-Jul-03 21:00N 37°18' E 023°36'2 0.6 180 / 51008.2 25.5 23.8
2020-Jul-03 18:00N 37°18' E 023°38'2 1.7
2020-Jul-03 17:00N 37°18' E 023°36'2 4.2 160 / 61008.210.8 26.023.023.0
2020-Jul-03 16:30N 37°18' E 023°39'0 0.4
2020-Jul-03 16:00N 37°18' E 023°39'0 0.2
2020-Jul-03 15:30N 37°18' E 023°39'1 0.6
2020-Jul-03 14:30N 37°18' E 023°38'0 0.5
2020-Jul-03 14:00N 37°18' E 023°39'0 0.4
2020-Jul-03 13:30N 37°18' E 023°39'1 0.3
2020-Jul-03 10:28N 37°17' E 023°39'0 0.8
2020-Jul-03 09:56N 37°18' E 023°39'0 0.3
2020-Jul-03 08:59N 37°18' E 023°39'1 1.4
2020-Jul-03 08:26N 37°17' E 023°39'6 4.0
2020-Jul-03 07:00N 37°12' E 023°36'610.9 330 / 101008.2 27.0 23.5
2020-Jul-03 06:26N 37°18' E 023°38'2 0.8
2020-Jul-03 04:00N 37°18' E 023°36'742.1 320 / 151007.210.8 27.019.723.0
2020-Jul-03 03:50N 37°24' E 023°41'3 3.4
2020-Jul-03 03:00N 37°26' E 023°41'2 3.3
2020-Jul-03 02:30N 37°28' E 023°41'19 3.2
2020-Jul-02 20:30N 37°47' E 023°38'4 3.6
2020-Jul-02 19:30N 37°51' E 023°37'4 4.0
2020-Jul-02 18:30N 37°55' E 023°36'2 0.7
2020-Jul-02 16:00N 37°56' E 023°38'3217.9
2020-Jul-02 16:00N 37°54' E 023°36'3 1.8 180 / 61010.210.8 30.012.924.0
2020-Jul-02 14:30N 37°56' E 023°38'0 0.0
2020-Jul-02 11:30N 37°56' E 023°38'0 0.0
2020-Jul-02 11:00N 37°56' E 023°38'0 0.0
2020-Jul-02 10:30N 37°56' E 023°38'0 0.0
2020-Jul-02 09:30N 37°56' E 023°38'0 0.0
2020-Jul-02 09:00N 37°56' E 023°38'0 0.0
2020-Jul-02 06:30N 37°56' E 023°38'3 5.3
2020-Jul-02 06:00N 37°54' E 023°36'3 1.4 360 / 61009.2 30.014.224.0
2020-Jul-02 04:00N 37°56' E 023°38'3222.9
2020-Jul-02 04:00N 37°54' E 023°36'3 5.6 030 / 51010.210.8 24.021.823.0
2020-Jul-02 03:30N 37°56' E 023°38'0 0.0
2020-Jul-02 02:30N 37°56' E 023°38'0 0.0
2020-Jul-02 01:30N 37°56' E 023°38'0 0.0
2020-Jul-01 23:30N 37°56' E 023°38'0 0.0
2020-Jul-01 18:30N 37°56' E 023°38'3 5.3
2020-Jul-01 18:00N 37°54' E 023°36'3 1.4 040 / 111009.2 23.020.823.0
2020-Jul-01 16:00N 37°56' E 023°38'0 0.0
2020-Jul-01 13:30N 37°56' E 023°38'3 0.4
2020-Jul-01 07:00N 37°54' E 023°36'3 1.8 1009.210.8 25.018.523.0
2020-Jul-01 05:30N 37°56' E 023°38'0 0.0
2020-Jul-01 04:00N 37°56' E 023°38'0 0.0
2020-Jul-01 02:30N 37°56' E 023°38'0 0.0
2020-Jul-01 00:00N 37°56' E 023°38'0 0.0
2020-Jun-30 21:30N 37°56' E 023°38'0 0.0
2020-Jun-30 18:30N 37°56' E 023°38'0 0.0
2020-Jun-30 18:00N 37°56' E 023°38'0 0.0
2020-Jun-30 17:30N 37°56' E 023°38'3 5.3
2020-Jun-30 17:00N 37°54' E 023°36'3 5.6 1009.210.8 24.016.822.0
2020-Jun-30 16:30N 37°56' E 023°38'0 0.0
2020-Jun-30 15:30N 37°56' E 023°38'0 0.0
2020-Jun-30 14:30N 37°56' E 023°38'0 0.0
2020-Jun-30 13:30N 37°56' E 023°38'0 0.0
2020-Jun-30 12:00N 37°56' E 023°38'0 0.0
2020-Jun-30 07:28N 37°56' E 023°38'0 0.0
2020-Jun-30 06:28N 37°56' E 023°38'0 0.0
2020-Jun-30 03:28N 37°56' E 023°38'0 0.0
2020-Jun-30 02:28N 37°56' E 023°38'0 0.0
2020-Jun-30 00:28N 37°56' E 023°38'0 0.0
2020-Jun-29 22:58N 37°56' E 023°38'0 0.0
2020-Jun-29 22:28N 37°56' E 023°38'0 0.4
2020-Jun-29 21:30N 37°56' E 023°37'26 5.3
2020-Jun-29 16:30N 37°31' E 023°48'3 5.6
2020-Jun-29 16:00N 37°29' E 023°49'12 5.5
2020-Jun-29 13:51N 37°17' E 023°54'2 5.7
2020-Jun-29 13:25N 37°15' E 023°55'40 6.0
2020-Jun-29 06:49N 36°38' E 024°13'5 3.9
2020-Jun-29 05:29N 36°34' E 024°17'4 7.6
2020-Jun-29 05:00N 36°30' E 024°18'4 6.2 330 / 161010.210.8 24.018.223.0
2020-Jun-29 04:26N 36°32' E 024°22'17 4.1
2020-Jun-29 00:21N 36°24' E 024°40'4 4.2
2020-Jun-28 23:29N 36°22' E 024°44'4 4.3
2020-Jun-28 22:27N 36°20' E 024°49'2 4.2
2020-Jun-28 21:58N 36°19' E 024°51'2 4.2
2020-Jun-28 21:29N 36°18' E 024°53'4 1.1
2020-Jun-28 18:12N 36°15' E 024°56'14 3.5
2020-Jun-28 14:20N 36°08' E 025°11'3 3.9
2020-Jun-28 13:29N 36°06' E 025°14'6 3.8
2020-Jun-28 11:58N 36°03' E 025°20'18 4.0
2020-Jun-28 07:24N 35°53' E 025°39'16 6.8
2020-Jun-28 05:00N 35°42' E 025°54'3481.5 300 / 201011.210.8 23.018.223.0
2020-Jun-28 04:59N 35°44' E 025°57'16 6.3
2020-Jun-28 02:30N 35°36' E 026°13'5 5.3
2020-Jun-28 01:30N 35°33' E 026°18'12 4.9
2020-Jun-27 22:58N 35°26' E 026°31'3 4.5
2020-Jun-27 22:25N 35°24' E 026°33'14 4.6
2020-Jun-27 19:27N 35°17' E 026°48'2 4.7
2020-Jun-27 18:58N 35°17' E 026°50'13 5.2
2020-Jun-27 16:30N 35°16' E 027°06'4 7.6
2020-Jun-27 16:00N 35°12' E 027°06'   300 / 271009.210.8 24.520.823.2
Track history (hours):
 
Tides and Currents Weather Stations Pressure Air Temp Water Temp Dewpoint Dewpoint Depression Visibility Wind Speed Wind Dir Waves Ship Positions

Celebrity Constellation

Last reported at 2020-Jul-07 16:00 UTC. Time now 2020-Jul-07 17:46 UTC.
Position N 37°12' E 023°30'.

Length 294 m; draft 8.3 m.

Type: Passenger vessel. MMSI: 249046000.

Wind at 2 knots

Barometer 1004.2 mb
Air temperature 26.0 ° C
Visibility: greater than 10.8 NM
Dewpoint 23.2 ° C
Water temperature 25.0 ° C

Date/timePositionNaut miles runAvg speedWind from/ knotsBaromVisibWave heightAir tempDewpointWater temp
2020-Jul-07 16:00N 37°12' E 023°30'522.5 1004.210.8 26.023.225.0
2020-Jul-07 15:45N 37°15' E 023°36'1 0.8
2020-Jul-07 14:51N 37°15' E 023°37'0 0.2
2020-Jul-07 13:46N 37°15' E 023°37'1 1.4
2020-Jul-07 12:59N 37°14' E 023°36'3 1.8
2020-Jul-07 11:29N 37°12' E 023°35'1 1.2
2020-Jul-07 10:59N 37°13' E 023°35'2 0.5
2020-Jul-07 07:28N 37°14' E 023°36'0 0.2
2020-Jul-07 05:30N 37°15' E 023°36'1 0.8
2020-Jul-07 04:49N 37°15' E 023°36'3 3.7
2020-Jul-07 04:00N 37°12' E 023°36'4 7.0 260 / 71004.210.8 25.017.823.0
2020-Jul-07 03:25N 37°16' E 023°36'0 0.4
2020-Jul-07 02:59N 37°16' E 023°36'2 0.6
2020-Jul-07 00:00N 37°16' E 023°38'1 0.4
2020-Jul-06 22:20N 37°16' E 023°39'4 3.2
2020-Jul-06 21:00N 37°12' E 023°36'4 1.5 260 / 81003.2 25.725.725.0
2020-Jul-06 18:04N 37°16' E 023°36'1 0.9
2020-Jul-06 17:30N 37°16' E 023°37'0 0.2
2020-Jul-06 17:00N 37°16' E 023°37'4 3.8
2020-Jul-06 16:00N 37°12' E 023°36'2 0.4 230 / 111002.210.8 30.015.024.0
2020-Jul-06 11:48N 37°13' E 023°37'1 0.9
2020-Jul-06 10:55N 37°14' E 023°38'1 1.4
2020-Jul-06 09:59N 37°15' E 023°38'1 1.6
2020-Jul-06 09:30N 37°16' E 023°38'0 0.5
2020-Jul-06 08:30N 37°16' E 023°37'1 1.2
2020-Jul-06 07:53N 37°16' E 023°37'1 0.2
2020-Jul-06 04:16N 37°16' E 023°36'3 2.5
2020-Jul-06 03:00N 37°18' E 023°39'2145.9
2020-Jul-06 03:00N 37°18' E 023°36'3 6.3 360 / 331002.210.8 25.019.225.0
2020-Jul-06 02:27N 37°19' E 023°40'4 3.4
2020-Jul-06 01:07N 37°24' E 023°40'8 2.6
2020-Jul-05 21:57N 37°32' E 023°41'2 2.3
2020-Jul-05 21:00N 37°30' E 023°42'9 9.2 290 / 201005.2 26.026.025.0
2020-Jul-05 20:00N 37°39' E 023°42'14 3.6
2020-Jul-05 16:00N 37°51' E 023°31'0 0.1
2020-Jul-05 15:30N 37°51' E 023°31'0 0.0
2020-Jul-05 12:30N 37°51' E 023°31'0 0.0
2020-Jul-05 10:30N 37°51' E 023°31'0 0.0
2020-Jul-05 05:30N 37°51' E 023°31'0 0.0
2020-Jul-05 04:00N 37°51' E 023°31'0 0.0
2020-Jul-05 03:00N 37°51' E 023°31'0 0.0
2020-Jul-05 02:00N 37°51' E 023°31'0 0.0
2020-Jul-04 22:30N 37°51' E 023°31'0 0.0
2020-Jul-04 20:00N 37°51' E 023°31'0 0.0
2020-Jul-04 19:30N 37°51' E 023°31'0 0.0
2020-Jul-04 18:30N 37°51' E 023°31'0 0.0
2020-Jul-04 12:30N 37°51' E 023°31'1 0.5
2020-Jul-04 11:30N 37°50' E 023°32'33 4.3
2020-Jul-04 04:00N 37°18' E 023°36'6 5.8 320 / 111009.210.8 25.023.325.0
2020-Jul-04 03:00N 37°22' E 023°41'4 4.4
2020-Jul-04 01:59N 37°18' E 023°39'0 0.1
2020-Jul-03 21:30N 37°18' E 023°38'0 0.0
2020-Jul-03 21:00N 37°18' E 023°38'2169.9
2020-Jul-03 21:00N 37°18' E 023°36'2 0.6 180 / 51008.2 25.5 23.8
2020-Jul-03 18:00N 37°18' E 023°38'2 1.7
2020-Jul-03 17:00N 37°18' E 023°36'2 4.2 160 / 61008.210.8 26.023.023.0
2020-Jul-03 16:30N 37°18' E 023°39'0 0.4
2020-Jul-03 16:00N 37°18' E 023°39'0 0.2
2020-Jul-03 15:30N 37°18' E 023°39'1 0.6
2020-Jul-03 14:30N 37°18' E 023°38'0 0.5
2020-Jul-03 14:00N 37°18' E 023°39'0 0.4
2020-Jul-03 13:30N 37°18' E 023°39'1 0.3
2020-Jul-03 10:28N 37°17' E 023°39'0 0.8
2020-Jul-03 09:56N 37°18' E 023°39'0 0.3
2020-Jul-03 08:59N 37°18' E 023°39'1 1.4
2020-Jul-03 08:26N 37°17' E 023°39'6 4.0
2020-Jul-03 07:00N 37°12' E 023°36'610.9 330 / 101008.2 27.0 23.5
2020-Jul-03 06:26N 37°18' E 023°38'2 0.8
2020-Jul-03 04:00N 37°18' E 023°36'742.1 320 / 151007.210.8 27.019.723.0
2020-Jul-03 03:50N 37°24' E 023°41'3 3.4
2020-Jul-03 03:00N 37°26' E 023°41'2 3.3
2020-Jul-03 02:30N 37°28' E 023°41'19 3.2
2020-Jul-02 20:30N 37°47' E 023°38'4 3.6
2020-Jul-02 19:30N 37°51' E 023°37'4 4.0
2020-Jul-02 18:30N 37°55' E 023°36'2 0.7
2020-Jul-02 16:00N 37°56' E 023°38'3217.9
2020-Jul-02 16:00N 37°54' E 023°36'3 1.8 180 / 61010.210.8 30.012.924.0
2020-Jul-02 14:30N 37°56' E 023°38'0 0.0
2020-Jul-02 11:30N 37°56' E 023°38'0 0.0
2020-Jul-02 11:00N 37°56' E 023°38'0 0.0
2020-Jul-02 10:30N 37°56' E 023°38'0 0.0
2020-Jul-02 09:30N 37°56' E 023°38'0 0.0
2020-Jul-02 09:00N 37°56' E 023°38'0 0.0
2020-Jul-02 06:30N 37°56' E 023°38'3 5.3
2020-Jul-02 06:00N 37°54' E 023°36'3 1.4 360 / 61009.2 30.014.224.0
2020-Jul-02 04:00N 37°56' E 023°38'3222.9
2020-Jul-02 04:00N 37°54' E 023°36'3 5.6 030 / 51010.210.8 24.021.823.0
2020-Jul-02 03:30N 37°56' E 023°38'0 0.0
2020-Jul-02 02:30N 37°56' E 023°38'0 0.0
2020-Jul-02 01:30N 37°56' E 023°38'0 0.0
2020-Jul-01 23:30N 37°56' E 023°38'0 0.0
2020-Jul-01 18:30N 37°56' E 023°38'3 5.3
2020-Jul-01 18:00N 37°54' E 023°36'3 1.4 040 / 111009.2 23.020.823.0
2020-Jul-01 16:00N 37°56' E 023°38'0 0.0
2020-Jul-01 13:30N 37°56' E 023°38'3 0.4
2020-Jul-01 07:00N 37°54' E 023°36'3 1.8 1009.210.8 25.018.523.0
2020-Jul-01 05:30N 37°56' E 023°38'0 0.0
2020-Jul-01 04:00N 37°56' E 023°38'0 0.0
2020-Jul-01 02:30N 37°56' E 023°38'0 0.0
2020-Jul-01 00:00N 37°56' E 023°38'0 0.0
2020-Jun-30 21:30N 37°56' E 023°38'0 0.0
2020-Jun-30 18:30N 37°56' E 023°38'0 0.0
2020-Jun-30 18:00N 37°56' E 023°38'0 0.0
2020-Jun-30 17:30N 37°56' E 023°38'3 5.3
2020-Jun-30 17:00N 37°54' E 023°36'3 5.6 1009.210.8 24.016.822.0
2020-Jun-30 16:30N 37°56' E 023°38'0 0.0
2020-Jun-30 15:30N 37°56' E 023°38'0 0.0
2020-Jun-30 14:30N 37°56' E 023°38'0 0.0
2020-Jun-30 13:30N 37°56' E 023°38'0 0.0
2020-Jun-30 12:00N 37°56' E 023°38'0 0.0
2020-Jun-30 07:28N 37°56' E 023°38'0 0.0
2020-Jun-30 06:28N 37°56' E 023°38'0 0.0
2020-Jun-30 03:28N 37°56' E 023°38'0 0.0
2020-Jun-30 02:28N 37°56' E 023°38'0 0.0
2020-Jun-30 00:28N 37°56' E 023°38'0 0.0
2020-Jun-29 22:58N 37°56' E 023°38'0 0.0
2020-Jun-29 22:28N 37°56' E 023°38'0 0.4
2020-Jun-29 21:30N 37°56' E 023°37'26 5.3
2020-Jun-29 16:30N 37°31' E 023°48'3 5.6
2020-Jun-29 16:00N 37°29' E 023°49'12 5.5
2020-Jun-29 13:51N 37°17' E 023°54'2 5.7
2020-Jun-29 13:25N 37°15' E 023°55'40 6.0
2020-Jun-29 06:49N 36°38' E 024°13'5 3.9
2020-Jun-29 05:29N 36°34' E 024°17'4 7.6
2020-Jun-29 05:00N 36°30' E 024°18'4 6.2 330 / 161010.210.8 24.018.223.0
2020-Jun-29 04:26N 36°32' E 024°22'17 4.1
2020-Jun-29 00:21N 36°24' E 024°40'4 4.2
2020-Jun-28 23:29N 36°22' E 024°44'4 4.3
2020-Jun-28 22:27N 36°20' E 024°49'2 4.2
2020-Jun-28 21:58N 36°19' E 024°51'2 4.2
2020-Jun-28 21:29N 36°18' E 024°53'4 1.1
2020-Jun-28 18:12N 36°15' E 024°56'14 3.5
2020-Jun-28 14:20N 36°08' E 025°11'3 3.9
2020-Jun-28 13:29N 36°06' E 025°14'6 3.8
2020-Jun-28 11:58N 36°03' E 025°20'18 4.0
2020-Jun-28 07:24N 35°53' E 025°39'16 6.8
2020-Jun-28 05:00N 35°42' E 025°54'3481.5 300 / 201011.210.8 23.018.223.0
2020-Jun-28 04:59N 35°44' E 025°57'16 6.3
2020-Jun-28 02:30N 35°36' E 026°13'5 5.3
2020-Jun-28 01:30N 35°33' E 026°18'12 4.9
2020-Jun-27 22:58N 35°26' E 026°31'3 4.5
2020-Jun-27 22:25N 35°24' E 026°33'14 4.6
2020-Jun-27 19:27N 35°17' E 026°48'2 4.7
2020-Jun-27 18:58N 35°17' E 026°50'13 5.2
2020-Jun-27 16:30N 35°16' E 027°06'4 7.6
2020-Jun-27 16:00N 35°12' E 027°06'   300 / 271009.210.8 24.520.823.2

Dump ship's entire track history